createdAt,value
2023-03-12T00:01:15.184Z,99677.65
2023-03-12T00:04:40.728Z,99679.71
2023-03-12T00:08:06.933Z,99679.34
2023-03-12T00:11:32.951Z,99675.98
2023-03-12T00:14:58.876Z,99684.43
2023-03-12T00:18:17.415Z,99680.55
2023-03-12T00:21:43.354Z,99677.62
2023-03-12T00:25:12.569Z,99681.36
2023-03-12T00:28:38.697Z,99682.02
2023-03-12T00:32:04.594Z,99686.09
2023-03-12T00:35:30.380Z,99686.52
2023-03-12T00:39:00.763Z,99684.89
2023-03-12T00:42:26.353Z,99684.66
2023-03-12T00:45:52.136Z,99688.90
2023-03-12T00:49:17.987Z,99694.51
2023-03-12T00:52:45.227Z,99694.34
2023-03-12T00:56:11.272Z,99694.30
2023-03-12T00:59:40.419Z,99696.14
2023-03-12T01:03:06.315Z,99704.02
2023-03-12T01:06:32.067Z,99703.60
2023-03-12T01:09:57.904Z,99702.21
2023-03-12T01:13:23.796Z,99700.33
2023-03-12T01:16:52.017Z,99701.25
2023-03-12T01:20:18.282Z,99704.28
2023-03-12T01:23:43.738Z,99703.16
2023-03-12T01:27:10.691Z,99703.38
2023-03-12T01:30:36.315Z,99704.23
2023-03-12T01:34:01.931Z,99701.85
2023-03-12T01:37:27.883Z,99703.90
2023-03-12T01:40:53.650Z,99699.95
2023-03-12T01:44:19.491Z,99696.70
2023-03-12T01:47:45.236Z,99689.41
2023-03-12T01:51:14.202Z,99686.81
2023-03-12T01:54:34.688Z,99690.17
2023-03-12T01:58:00.437Z,99690.48
2023-03-12T02:01:26.547Z,99694.54
2023-03-12T02:04:53.086Z,99693.27
2023-03-12T02:08:20.451Z,99695.05
2023-03-12T02:11:46.024Z,99696.01
2023-03-12T02:15:12.651Z,99697.23
2023-03-12T02:18:38.295Z,99696.14
2023-03-12T02:22:04.221Z,99700.41
2023-03-12T02:25:32.294Z,99701.27
2023-03-12T02:29:00.318Z,99698.20
2023-03-12T02:32:28.180Z,99706.64
2023-03-12T02:35:54.286Z,99717.92
2023-03-12T02:39:20.698Z,99719.50
2023-03-12T02:42:47.794Z,99724.70
2023-03-12T02:46:13.769Z,99720.48
2023-03-12T02:49:39.559Z,99721.33
2023-03-12T02:53:05.469Z,99723.83
2023-03-12T02:56:31.792Z,99729.27
2023-03-12T02:59:57.720Z,99725.38
2023-03-12T03:03:23.426Z,99720.85
2023-03-12T03:06:49.598Z,99720.00
2023-03-12T03:10:17.430Z,99722.36
2023-03-12T03:13:43.127Z,99726.64
2023-03-12T03:17:08.902Z,99735.29
2023-03-12T03:20:34.797Z,99729.05
2023-03-12T03:24:00.492Z,99735.19
2023-03-12T03:27:26.109Z,99732.77
2023-03-12T03:30:55.475Z,99739.85
2023-03-12T03:34:21.228Z,99749.27
2023-03-12T03:37:46.836Z,99760.48
2023-03-12T03:41:12.587Z,99763.89
2023-03-12T03:44:38.219Z,99769.98
2023-03-12T03:48:04.108Z,99774.55
2023-03-12T03:51:30.204Z,99776.48
2023-03-12T03:54:57.059Z,99778.75
2023-03-12T03:58:22.553Z,99788.73
2023-03-12T04:01:48.341Z,99787.36
2023-03-12T04:05:16.127Z,99791.98
2023-03-12T04:08:42.086Z,99795.98
2023-03-12T04:12:09.202Z,99798.31
2023-03-12T04:15:27.805Z,99805.55
2023-03-12T04:18:53.692Z,99811.89
2023-03-12T04:22:19.638Z,99814.77
2023-03-12T04:25:45.537Z,99817.67
2023-03-12T04:29:12.565Z,99825.73
2023-03-12T04:32:38.448Z,99824.06
2023-03-12T04:36:04.958Z,99823.73
2023-03-12T04:39:30.612Z,99823.70
2023-03-12T04:42:56.565Z,99827.02
2023-03-12T04:46:22.666Z,99831.45
2023-03-12T04:49:48.660Z,99836.16
2023-03-12T04:53:14.678Z,99837.88
2023-03-12T04:56:40.700Z,99848.95
2023-03-12T05:00:10.547Z,99849.15
2023-03-12T05:03:36.390Z,99846.76
2023-03-12T05:07:02.485Z,99854.27
2023-03-12T05:10:28.460Z,99860.48
2023-03-12T05:13:54.686Z,99860.51
2023-03-12T05:17:20.431Z,99868.73
2023-03-12T05:20:46.341Z,99879.51
2023-03-12T05:24:14.478Z,99879.38
2023-03-12T05:27:40.367Z,99884.89
2023-03-12T05:31:10.098Z,99885.82
2023-03-12T05:34:35.976Z,99897.62
2023-03-12T05:38:01.917Z,99905.30
2023-03-12T05:41:28.299Z,99896.52
2023-03-12T05:44:53.889Z,99902.76
2023-03-12T05:48:19.683Z,99907.01
2023-03-12T05:51:45.389Z,99914.92
2023-03-12T05:55:11.685Z,99926.35
2023-03-12T05:58:38.135Z,99931.23
2023-03-12T06:02:03.894Z,99932.94
2023-03-12T06:05:29.690Z,99937.85
2023-03-12T06:08:55.594Z,99943.27
2023-03-12T06:12:21.223Z,99946.09
2023-03-12T06:15:46.930Z,99946.14
2023-03-12T06:19:14.831Z,99951.59
2023-03-12T06:22:40.453Z,99950.98
2023-03-12T06:26:07.636Z,99957.48
2023-03-12T06:29:33.392Z,99959.35
2023-03-12T06:32:59.256Z,99963.88
2023-03-12T06:36:25.842Z,99975.52
2023-03-12T06:39:52.332Z,99972.48
2023-03-12T06:43:18.245Z,99973.73
2023-03-12T06:46:44.444Z,99977.30
2023-03-12T06:50:11.559Z,99981.08
2023-03-12T06:53:37.734Z,99984.20
2023-03-12T06:57:04.357Z,99993.52
2023-03-12T07:00:30.196Z,99990.23
2023-03-12T07:03:55.773Z,99997.30
2023-03-12T07:07:21.428Z,100002.68
2023-03-12T07:10:47.615Z,100004.30
2023-03-12T07:14:13.660Z,100004.23
2023-03-12T07:17:39.793Z,100008.69
2023-03-12T07:21:06.072Z,100011.31
2023-03-12T07:24:31.670Z,100012.69
2023-03-12T07:27:57.346Z,100009.87
2023-03-12T07:31:23.007Z,100012.73
2023-03-12T07:34:48.521Z,100012.55
2023-03-12T07:38:14.511Z,100018.79
2023-03-12T07:41:40.367Z,100021.36
2023-03-12T07:45:08.102Z,100025.63
2023-03-12T07:48:33.866Z,100037.02
2023-03-12T07:51:59.709Z,100032.45
2023-03-12T07:55:25.525Z,100037.91
2023-03-12T07:58:52.786Z,100048.21
2023-03-12T08:02:19.237Z,100043.48
2023-03-12T08:05:46.651Z,100051.34
2023-03-12T08:09:12.453Z,100046.58
2023-03-12T08:12:38.388Z,100040.56
2023-03-12T08:16:04.441Z,100053.81
2023-03-12T08:19:31.088Z,100058.73
2023-03-12T08:22:56.915Z,100063.33
2023-03-12T08:26:22.736Z,100055.84
2023-03-12T08:29:50.570Z,100064.41
2023-03-12T08:33:16.485Z,100066.58
2023-03-12T08:36:42.266Z,100075.90
2023-03-12T08:40:13.287Z,100081.00
2023-03-12T08:43:39.051Z,100082.25
2023-03-12T08:47:04.789Z,100079.80
2023-03-12T08:50:32.213Z,100089.45
2023-03-12T08:53:58.070Z,100083.98
2023-03-12T08:57:23.862Z,100086.30
2023-03-12T09:00:49.812Z,100091.68
2023-03-12T09:04:16.351Z,100092.70
2023-03-12T09:07:42.372Z,100102.69
2023-03-12T09:11:09.809Z,100108.14
2023-03-12T09:15:03.105Z,100115.42
2023-03-12T09:18:21.250Z,100131.23
2023-03-12T09:21:55.653Z,100121.30
2023-03-12T09:25:23.493Z,100136.25
2023-03-12T09:28:50.090Z,100106.55
2023-03-12T09:32:17.097Z,100114.52
2023-03-12T09:35:42.909Z,100119.73
2023-03-12T09:39:09.116Z,100112.31
2023-03-12T09:42:31.681Z,100116.38
2023-03-12T09:45:58.133Z,100112.38
2023-03-12T09:49:27.826Z,100110.77
2023-03-12T09:52:55.386Z,100114.88
2023-03-12T09:56:22.057Z,100115.16
2023-03-12T09:59:47.756Z,100112.11
2023-03-12T10:03:23.720Z,100121.23
2023-03-12T10:06:52.793Z,100112.11
2023-03-12T10:10:23.398Z,100111.48
2023-03-12T10:13:54.800Z,100103.59
2023-03-12T10:17:28.883Z,100119.21
2023-03-12T10:20:59.235Z,100125.06
2023-03-12T10:24:31.677Z,100130.96
2023-03-12T10:28:01.265Z,100126.61
2023-03-12T10:31:29.077Z,100124.98
2023-03-12T10:34:56.173Z,100134.66
2023-03-12T10:38:28.046Z,100141.23
2023-03-12T10:41:54.067Z,100148.77
2023-03-12T10:45:28.546Z,100145.80
2023-03-12T10:49:14.351Z,100132.77
2023-03-12T10:52:41.054Z,100139.52
2023-03-12T10:56:09.151Z,100134.59
2023-03-12T10:59:36.369Z,100139.43
2023-03-12T11:03:03.710Z,100153.00
2023-03-12T11:06:30.786Z,100153.83
2023-03-12T11:09:36.452Z,100156.18
2023-03-12T11:13:03.197Z,100144.96
2023-03-12T11:16:23.117Z,100140.42
2023-03-12T11:19:29.802Z,100134.13
2023-03-12T11:22:38.520Z,100132.64
2023-03-12T11:26:06.345Z,100125.09
2023-03-12T11:29:18.422Z,100127.52
2023-03-12T11:32:37.503Z,100140.88
2023-03-12T11:36:09.844Z,100146.30
2023-03-12T11:39:35.216Z,100137.27
2023-03-12T11:43:15.591Z,100130.41
2023-03-12T11:46:50.229Z,100129.98
2023-03-12T11:50:21.598Z,100132.23
2023-03-12T11:53:54.477Z,100134.05
2023-03-12T11:57:26.138Z,100137.27
2023-03-12T12:00:39.471Z,100128.46
2023-03-12T12:04:14.652Z,100133.73
2023-03-12T12:07:39.672Z,100141.59
2023-03-12T12:10:54.515Z,100143.05
2023-03-12T12:14:17.012Z,100141.36
2023-03-12T12:17:49.389Z,100137.34
2023-03-12T12:21:23.474Z,100140.55
2023-03-12T12:24:55.888Z,100130.80
2023-03-12T12:28:17.098Z,100138.91
2023-03-12T12:31:46.850Z,100125.52
2023-03-12T12:35:20.927Z,100126.52
2023-03-12T12:38:30.645Z,100131.59
2023-03-12T12:41:58.290Z,100123.46
2023-03-12T12:45:05.573Z,100126.66
2023-03-12T12:48:33.450Z,100117.83
2023-03-12T12:51:53.019Z,100118.28
2023-03-12T12:55:16.359Z,100110.47
2023-03-12T12:58:45.982Z,100102.65
2023-03-12T13:02:18.003Z,100088.63
2023-03-12T13:05:46.870Z,100101.91
2023-03-12T13:09:02.843Z,100100.66
2023-03-12T13:12:16.954Z,100101.70
2023-03-12T13:15:40.803Z,100102.30
2023-03-12T13:19:00.787Z,100106.05
2023-03-12T13:22:12.241Z,100114.86
2023-03-12T13:25:26.589Z,100116.69
2023-03-12T13:28:42.017Z,100132.42
2023-03-12T13:32:11.364Z,100138.41
2023-03-12T13:35:32.184Z,100131.89
2023-03-12T13:38:56.113Z,100126.66
2023-03-12T13:42:41.860Z,100117.98
2023-03-12T13:46:08.525Z,100123.09
2023-03-12T13:49:25.612Z,100119.48
2023-03-12T13:52:42.302Z,100126.11
2023-03-12T13:56:04.293Z,100135.02
2023-03-12T13:59:17.741Z,100139.70
2023-03-12T14:02:46.372Z,100140.51
2023-03-12T14:06:13.945Z,100136.90
2023-03-12T14:09:43.892Z,100136.61
2023-03-12T14:12:55.476Z,100137.97
2023-03-12T14:16:20.449Z,100135.06
2023-03-12T14:19:26.687Z,100137.85
2023-03-12T14:22:36.215Z,100125.95
2023-03-12T14:25:44.116Z,100113.38
2023-03-12T14:29:05.369Z,100116.09
2023-03-12T14:32:33.398Z,100099.96
2023-03-12T14:35:56.683Z,100097.23
2023-03-12T14:39:11.410Z,100096.09
2023-03-12T14:42:25.997Z,100099.73
2023-03-12T14:45:31.603Z,100100.64
2023-03-12T14:48:50.936Z,100089.02
2023-03-12T14:52:06.781Z,100082.52
2023-03-12T14:55:18.397Z,100067.19
2023-03-12T14:58:43.335Z,100062.50
2023-03-12T15:02:02.215Z,100058.59
2023-03-12T15:05:17.787Z,100060.50
2023-03-12T15:08:35.846Z,100046.91
2023-03-12T15:11:45.184Z,100047.91
2023-03-12T15:15:12.901Z,100049.59
2023-03-12T15:18:24.210Z,100044.96
2023-03-12T15:21:30.271Z,100044.70
2023-03-12T15:24:41.253Z,100043.48
2023-03-12T15:28:08.572Z,100046.27
2023-03-12T15:31:43.667Z,100053.70
2023-03-12T15:35:12.903Z,100057.61
2023-03-12T15:38:31.278Z,100051.95
2023-03-12T15:41:42.964Z,100047.62
2023-03-12T15:44:52.430Z,100037.06
2023-03-12T15:48:00.527Z,100031.79
2023-03-12T15:51:14.284Z,100026.92
2023-03-12T15:54:26.340Z,100016.63
2023-03-12T15:57:35.290Z,100016.65
2023-03-12T16:01:12.098Z,100018.46
2023-03-12T16:04:37.895Z,100014.83
2023-03-12T16:07:43.500Z,100008.55
2023-03-12T16:10:51.762Z,99999.48
2023-03-12T16:14:13.950Z,99997.30
2023-03-12T16:17:32.362Z,99988.52
2023-03-12T16:20:38.041Z,99986.02
2023-03-12T16:24:05.198Z,99984.12
2023-03-12T16:27:15.823Z,99985.45
2023-03-12T16:30:44.156Z,99979.23
2023-03-12T16:33:52.749Z,99980.81
2023-03-12T16:37:18.424Z,99978.16
2023-03-12T16:40:33.439Z,99974.34
2023-03-12T16:43:42.741Z,99972.61
2023-03-12T16:46:59.279Z,99966.62
2023-03-12T16:50:22.163Z,99966.25
2023-03-12T16:53:58.482Z,99969.86
2023-03-12T16:57:34.199Z,99977.77
2023-03-12T17:00:40.607Z,99984.09
2023-03-12T17:04:06.347Z,99976.86
2023-03-12T17:07:22.190Z,99973.81
2023-03-12T17:10:27.745Z,99984.00
2023-03-12T17:13:33.453Z,99973.88
2023-03-12T17:16:38.986Z,99972.75
2023-03-12T17:20:07.948Z,99978.28
2023-03-12T17:23:33.657Z,99974.96
2023-03-12T17:26:38.932Z,99975.13
2023-03-12T17:30:04.857Z,99965.48
2023-03-12T17:33:19.008Z,99958.73
2023-03-12T17:36:30.072Z,99955.52
2023-03-12T17:39:42.858Z,99957.53
2023-03-12T17:42:59.608Z,99953.16
2023-03-12T17:46:25.283Z,99960.13
2023-03-12T17:49:51.081Z,99960.60
2023-03-12T17:53:06.990Z,99959.21
2023-03-12T17:56:23.695Z,99959.24
2023-03-12T17:59:29.078Z,99961.95
2023-03-12T18:02:54.850Z,99966.13
2023-03-12T18:06:03.016Z,99972.13
2023-03-12T18:09:18.748Z,99978.52
2023-03-12T18:12:24.312Z,99981.73
2023-03-12T18:15:40.080Z,99981.95
2023-03-12T18:18:52.672Z,99978.40
2023-03-12T18:22:18.132Z,99972.27
2023-03-12T18:25:28.388Z,99960.23
2023-03-12T18:28:36.441Z,99954.69
2023-03-12T18:32:02.177Z,99945.67
2023-03-12T18:35:09.154Z,99935.23
2023-03-12T18:38:17.148Z,99930.45
2023-03-12T18:41:22.669Z,99926.15
2023-03-12T18:44:28.060Z,99927.79
2023-03-12T18:47:35.034Z,99925.77
2023-03-12T18:50:40.421Z,99920.95
2023-03-12T18:53:46.582Z,99918.79
2023-03-12T18:56:51.962Z,99924.04
2023-03-12T18:59:57.617Z,99920.64
2023-03-12T19:03:16.979Z,99923.30
2023-03-12T19:06:50.637Z,99918.02
2023-03-12T19:10:05.796Z,99915.50
2023-03-12T19:13:11.356Z,99923.58
2023-03-12T19:16:36.920Z,99912.58
2023-03-12T19:19:45.468Z,99903.65
2023-03-12T19:22:51.033Z,99904.52
2023-03-12T19:26:08.434Z,99894.67
2023-03-12T19:29:15.175Z,99893.19
2023-03-12T19:32:44.141Z,99891.98
2023-03-12T19:35:51.944Z,99887.79
2023-03-12T19:39:02.367Z,99877.52
2023-03-12T19:42:09.904Z,99872.46
2023-03-12T19:45:15.366Z,99866.83
2023-03-12T19:48:20.948Z,99865.66
2023-03-12T19:51:29.098Z,99866.40
2023-03-12T19:54:34.550Z,99863.69
2023-03-12T19:57:43.308Z,99860.52
2023-03-12T20:00:49.041Z,99846.95
2023-03-12T20:03:54.611Z,99850.02
2023-03-12T20:07:00.341Z,99851.40
2023-03-12T20:10:06.403Z,99853.89
2023-03-12T20:13:13.437Z,99845.60
2023-03-12T20:16:19.179Z,99850.98
2023-03-12T20:19:27.796Z,99854.80
2023-03-12T20:22:37.012Z,99859.80
2023-03-12T20:25:42.846Z,99860.36
2023-03-12T20:28:48.374Z,99868.38
2023-03-12T20:31:53.916Z,99872.50
2023-03-12T20:35:01.399Z,99876.05
2023-03-12T20:38:12.320Z,99876.19
2023-03-12T20:41:19.841Z,99870.34
2023-03-12T20:44:25.498Z,99875.90
2023-03-12T20:47:30.902Z,99872.92
2023-03-12T20:50:40.054Z,99864.98
2023-03-12T20:53:45.531Z,99867.15
2023-03-12T20:56:50.933Z,99864.73
2023-03-12T20:59:56.418Z,99857.33
2023-03-12T21:03:04.875Z,99853.39
2023-03-12T21:06:10.480Z,99848.17
2023-03-12T21:09:18.407Z,99849.53
2023-03-12T21:12:23.810Z,99853.36
2023-03-12T21:15:32.791Z,99852.90
2023-03-12T21:18:48.326Z,99851.87
2023-03-12T21:22:03.907Z,99846.61
2023-03-12T21:25:19.331Z,99845.73
2023-03-12T21:28:35.972Z,99839.52
2023-03-12T21:31:41.549Z,99832.99
2023-03-12T21:34:47.069Z,99821.98
2023-03-12T21:37:56.223Z,99825.66
2023-03-12T21:41:07.159Z,99818.00
2023-03-12T21:44:16.716Z,99815.40
2023-03-12T21:47:22.520Z,99817.58
2023-03-12T21:50:31.061Z,99815.90
2023-03-12T21:53:36.960Z,99823.25
2023-03-12T21:56:45.421Z,99822.90
2023-03-12T21:59:51.081Z,99817.48
2023-03-12T22:02:56.538Z,99815.88
2023-03-12T22:06:02.071Z,99811.52
2023-03-12T22:09:10.692Z,99803.35
2023-03-12T22:12:16.195Z,99795.89
2023-03-12T22:15:21.763Z,99790.48
2023-03-12T22:18:27.610Z,99783.16
2023-03-12T22:21:42.418Z,99774.13
2023-03-12T22:25:08.369Z,99782.61
2023-03-12T22:28:13.989Z,99775.61
2023-03-12T22:31:39.759Z,99761.35
2023-03-12T22:34:50.483Z,99758.64
2023-03-12T22:37:58.833Z,99752.42
2023-03-12T22:41:15.883Z,99754.06
2023-03-12T22:44:34.186Z,99751.35
2023-03-12T22:47:39.856Z,99748.57
2023-03-12T22:50:45.382Z,99738.14
2023-03-12T22:54:00.128Z,99729.67
2023-03-12T22:57:05.802Z,99725.77
2023-03-12T23:00:12.768Z,99731.89
2023-03-12T23:03:28.858Z,99726.62
2023-03-12T23:06:34.491Z,99723.59
2023-03-12T23:09:49.890Z,99723.61
2023-03-12T23:12:55.456Z,99719.96
2023-03-12T23:16:07.036Z,99715.77
2023-03-12T23:19:34.594Z,99717.54
2023-03-12T23:23:00.416Z,99715.52
2023-03-12T23:26:28.817Z,99709.52
2023-03-12T23:29:44.840Z,99709.92
2023-03-12T23:33:10.927Z,99704.46
2023-03-12T23:36:22.447Z,99703.93
2023-03-12T23:39:32.808Z,99697.70
2023-03-12T23:42:51.014Z,99694.17
2023-03-12T23:46:10.160Z,99686.52
2023-03-12T23:49:36.102Z,99692.67
2023-03-12T23:52:56.473Z,99686.30
2023-03-12T23:56:06.323Z,99677.97
2023-03-12T23:59:12.054Z,99676.08
